sensor_id;sensor_type;location;lat;lon;timestamp;temperature;humidity
22442;DHT22;11388;54.456;9.752;2022-09-09T00:06:42;16.20;99.90
22442;DHT22;11388;54.456;9.752;2022-09-09T00:09:22;16.20;99.90
22442;DHT22;11388;54.456;9.752;2022-09-09T00:12:02;16.30;99.90
22442;DHT22;11388;54.456;9.752;2022-09-09T00:14:50;16.30;99.90
22442;DHT22;11388;54.456;9.752;2022-09-09T00:17:34;16.10;99.90
22442;DHT22;11388;54.456;9.752;2022-09-09T00:20:10;16.00;99.90
22442;DHT22;11388;54.456;9.752;2022-09-09T00:22:40;16.10;99.90
22442;DHT22;11388;54.456;9.752;2022-09-09T00:25:16;16.10;99.90
22442;DHT22;11388;54.456;9.752;2022-09-09T00:27:48;16.10;99.90
22442;DHT22;11388;54.456;9.752;2022-09-09T00:32:52;16.20;99.90
22442;DHT22;11388;54.456;9.752;2022-09-09T00:35:34;16.40;99.90
22442;DHT22;11388;54.456;9.752;2022-09-09T00:38:14;16.50;99.90
22442;DHT22;11388;54.456;9.752;2022-09-09T00:40:52;16.40;99.90
22442;DHT22;11388;54.456;9.752;2022-09-09T00:43:30;16.30;99.90
22442;DHT22;11388;54.456;9.752;2022-09-09T00:55:17;16.20;99.90
22442;DHT22;11388;54.456;9.752;2022-09-09T00:57:45;16.30;99.90
22442;DHT22;11388;54.456;9.752;2022-09-09T01:00:22;16.20;99.90
22442;DHT22;11388;54.456;9.752;2022-09-09T01:08:01;16.20;99.90
22442;DHT22;11388;54.456;9.752;2022-09-09T01:10:50;16.20;99.90
22442;DHT22;11388;54.456;9.752;2022-09-09T01:13:33;16.10;99.90
22442;DHT22;11388;54.456;9.752;2022-09-09T01:16:03;16.10;99.90
22442;DHT22;11388;54.456;9.752;2022-09-09T01:18:33;16.20;99.90
22442;DHT22;11388;54.456;9.752;2022-09-09T01:21:04;16.20;99.90
22442;DHT22;11388;54.456;9.752;2022-09-09T01:26:41;16.30;99.90
22442;DHT22;11388;54.456;9.752;2022-09-09T01:29:09;16.20;99.90
22442;DHT22;11388;54.456;9.752;2022-09-09T01:31:39;16.30;99.90
22442;DHT22;11388;54.456;9.752;2022-09-09T01:34:14;16.30;99.90
22442;DHT22;11388;54.456;9.752;2022-09-09T01:36:47;16.20;99.90
22442;DHT22;11388;54.456;9.752;2022-09-09T01:39:16;16.30;99.90
22442;DHT22;11388;54.456;9.752;2022-09-09T01:41:42;16.40;99.90
22442;DHT22;11388;54.456;9.752;2022-09-09T01:44:08;16.40;99.90
22442;DHT22;11388;54.456;9.752;2022-09-09T01:46:35;16.50;99.90
22442;DHT22;11388;54.456;9.752;2022-09-09T01:49:02;16.40;99.90
22442;DHT22;11388;54.456;9.752;2022-09-09T01:51:29;16.40;99.90
22442;DHT22;11388;54.456;9.752;2022-09-09T01:53:55;16.40;99.90
22442;DHT22;11388;54.456;9.752;2022-09-09T01:56:41;16.30;99.90
22442;DHT22;11388;54.456;9.752;2022-09-09T02:02:30;16.30;99.90
22442;DHT22;11388;54.456;9.752;2022-09-09T02:05:28;16.20;99.90
22442;DHT22;11388;54.456;9.752;2022-09-09T02:08:09;16.10;99.90
22442;DHT22;11388;54.456;9.752;2022-09-09T02:13:17;16.20;99.90
22442;DHT22;11388;54.456;9.752;2022-09-09T02:15:52;16.20;99.90
22442;DHT22;11388;54.456;9.752;2022-09-09T02:18:26;16.10;99.90
22442;DHT22;11388;54.456;9.752;2022-09-09T02:20:53;16.10;99.90
22442;DHT22;11388;54.456;9.752;2022-09-09T02:23:19;16.20;99.90
22442;DHT22;11388;54.456;9.752;2022-09-09T02:25:46;16.20;99.90
22442;DHT22;11388;54.456;9.752;2022-09-09T02:28:15;16.10;99.90
22442;DHT22;11388;54.456;9.752;2022-09-09T02:30:42;16.10;99.90
22442;DHT22;11388;54.456;9.752;2022-09-09T02:33:10;16.20;99.90
22442;DHT22;11388;54.456;9.752;2022-09-09T02:35:38;16.30;99.90
22442;DHT22;11388;54.456;9.752;2022-09-09T02:38:08;16.30;99.90
22442;DHT22;11388;54.456;9.752;2022-09-09T02:43:56;16.40;99.90
22442;DHT22;11388;54.456;9.752;2022-09-09T02:50:04;16.40;99.90
22442;DHT22;11388;54.456;9.752;2022-09-09T02:58:04;16.00;99.90
22442;DHT22;11388;54.456;9.752;2022-09-09T03:00:31;16.00;99.90
22442;DHT22;11388;54.456;9.752;2022-09-09T03:02:58;16.10;99.90
22442;DHT22;11388;54.456;9.752;2022-09-09T03:05:23;16.10;99.90
22442;DHT22;11388;54.456;9.752;2022-09-09T03:07:49;16.00;99.90
22442;DHT22;11388;54.456;9.752;2022-09-09T03:10:16;16.00;99.90
22442;DHT22;11388;54.456;9.752;2022-09-09T03:12:43;15.80;99.90
22442;DHT22;11388;54.456;9.752;2022-09-09T03:15:08;15.80;99.90
22442;DHT22;11388;54.456;9.752;2022-09-09T03:17:35;15.90;99.90
22442;DHT22;11388;54.456;9.752;2022-09-09T03:20:02;15.90;99.90
22442;DHT22;11388;54.456;9.752;2022-09-09T03:22:28;15.90;99.90
22442;DHT22;11388;54.456;9.752;2022-09-09T03:24:54;15.90;99.90
22442;DHT22;11388;54.456;9.752;2022-09-09T03:27:19;15.90;99.90
22442;DHT22;11388;54.456;9.752;2022-09-09T03:29:46;16.00;99.90
22442;DHT22;11388;54.456;9.752;2022-09-09T03:32:12;16.00;99.90
22442;DHT22;11388;54.456;9.752;2022-09-09T03:34:38;15.90;99.90
22442;DHT22;11388;54.456;9.752;2022-09-09T03:37:07;15.90;99.90
22442;DHT22;11388;54.456;9.752;2022-09-09T03:39:33;15.90;99.90
22442;DHT22;11388;54.456;9.752;2022-09-09T03:41:59;15.90;99.90
22442;DHT22;11388;54.456;9.752;2022-09-09T03:44:24;15.70;99.90
22442;DHT22;11388;54.456;9.752;2022-09-09T03:46:50;15.70;99.90
22442;DHT22;11388;54.456;9.752;2022-09-09T03:49:16;15.80;99.90
22442;DHT22;11388;54.456;9.752;2022-09-09T03:51:42;15.80;99.90
22442;DHT22;11388;54.456;9.752;2022-09-09T03:54:08;15.70;99.90
22442;DHT22;11388;54.456;9.752;2022-09-09T03:56:36;15.60;99.90
22442;DHT22;11388;54.456;9.752;2022-09-09T03:59:02;15.50;99.90
22442;DHT22;11388;54.456;9.752;2022-09-09T04:01:28;15.60;99.90
22442;DHT22;11388;54.456;9.752;2022-09-09T04:03:54;15.70;99.90
22442;DHT22;11388;54.456;9.752;2022-09-09T04:06:24;15.80;99.90
22442;DHT22;11388;54.456;9.752;2022-09-09T04:08:50;15.70;99.90
22442;DHT22;11388;54.456;9.752;2022-09-09T04:11:17;15.60;99.90
22442;DHT22;11388;54.456;9.752;2022-09-09T04:13:43;15.70;99.90
22442;DHT22;11388;54.456;9.752;2022-09-09T04:16:11;15.60;99.90
22442;DHT22;11388;54.456;9.752;2022-09-09T04:18:38;15.70;99.90
22442;DHT22;11388;54.456;9.752;2022-09-09T04:21:04;15.60;99.90
22442;DHT22;11388;54.456;9.752;2022-09-09T04:23:32;15.50;99.90
22442;DHT22;11388;54.456;9.752;2022-09-09T04:26:00;15.60;99.90
22442;DHT22;11388;54.456;9.752;2022-09-09T04:28:28;15.60;99.90
22442;DHT22;11388;54.456;9.752;2022-09-09T04:30:55;15.60;99.90
22442;DHT22;11388;54.456;9.752;2022-09-09T04:33:23;15.50;99.90
22442;DHT22;11388;54.456;9.752;2022-09-09T04:35:52;15.50;99.90
22442;DHT22;11388;54.456;9.752;2022-09-09T04:38:19;15.60;99.90
22442;DHT22;11388;54.456;9.752;2022-09-09T04:40:49;15.70;99.90
22442;DHT22;11388;54.456;9.752;2022-09-09T04:43:15;15.80;99.90
22442;DHT22;11388;54.456;9.752;2022-09-09T04:45:42;15.80;99.90
22442;DHT22;11388;54.456;9.752;2022-09-09T04:48:08;15.80;99.90
22442;DHT22;11388;54.456;9.752;2022-09-09T04:50:35;15.70;99.90
22442;DHT22;11388;54.456;9.752;2022-09-09T04:53:02;15.70;99.90
22442;DHT22;11388;54.456;9.752;2022-09-09T04:55:30;15.70;99.90
22442;DHT22;11388;54.456;9.752;2022-09-09T04:57:55;15.60;99.90
22442;DHT22;11388;54.456;9.752;2022-09-09T05:00:23;15.80;99.90
22442;DHT22;11388;54.456;9.752;2022-09-09T05:02:48;15.80;99.90
22442;DHT22;11388;54.456;9.752;2022-09-09T05:05:14;15.80;99.90
22442;DHT22;11388;54.456;9.752;2022-09-09T05:07:40;15.80;99.90
22442;DHT22;11388;54.456;9.752;2022-09-09T05:10:07;15.70;99.90
22442;DHT22;11388;54.456;9.752;2022-09-09T05:12:33;15.70;99.90
22442;DHT22;11388;54.456;9.752;2022-09-09T05:14:58;15.60;99.90
22442;DHT22;11388;54.456;9.752;2022-09-09T05:17:24;15.60;99.90
22442;DHT22;11388;54.456;9.752;2022-09-09T05:19:50;15.60;99.90
22442;DHT22;11388;54.456;9.752;2022-09-09T05:22:22;15.50;99.90
22442;DHT22;11388;54.456;9.752;2022-09-09T05:24:49;15.60;99.90
22442;DHT22;11388;54.456;9.752;2022-09-09T05:27:17;15.50;99.90
22442;DHT22;11388;54.456;9.752;2022-09-09T05:29:45;15.50;99.90
22442;DHT22;11388;54.456;9.752;2022-09-09T05:32:11;15.60;99.90
22442;DHT22;11388;54.456;9.752;2022-09-09T05:34:39;15.60;99.90
22442;DHT22;11388;54.456;9.752;2022-09-09T05:37:04;15.60;99.90
22442;DHT22;11388;54.456;9.752;2022-09-09T05:39:30;15.50;99.90
22442;DHT22;11388;54.456;9.752;2022-09-09T05:42:29;15.50;99.90
22442;DHT22;11388;54.456;9.752;2022-09-09T05:44:55;15.50;99.90
22442;DHT22;11388;54.456;9.752;2022-09-09T05:47:21;15.30;99.90
22442;DHT22;11388;54.456;9.752;2022-09-09T05:49:47;15.30;99.90
22442;DHT22;11388;54.456;9.752;2022-09-09T05:52:13;15.40;99.90
22442;DHT22;11388;54.456;9.752;2022-09-09T05:54:39;15.50;99.90
22442;DHT22;11388;54.456;9.752;2022-09-09T05:57:05;15.60;99.90
22442;DHT22;11388;54.456;9.752;2022-09-09T05:59:31;15.60;99.90
22442;DHT22;11388;54.456;9.752;2022-09-09T06:05:19;15.80;99.90
22442;DHT22;11388;54.456;9.752;2022-09-09T06:07:45;15.80;99.90
22442;DHT22;11388;54.456;9.752;2022-09-09T06:10:11;15.80;99.90
22442;DHT22;11388;54.456;9.752;2022-09-09T06:12:39;15.80;99.90
22442;DHT22;11388;54.456;9.752;2022-09-09T06:15:05;15.80;99.90
22442;DHT22;11388;54.456;9.752;2022-09-09T06:17:31;15.80;99.90
22442;DHT22;11388;54.456;9.752;2022-09-09T06:19:57;15.70;99.90
22442;DHT22;11388;54.456;9.752;2022-09-09T06:22:23;15.70;99.90
22442;DHT22;11388;54.456;9.752;2022-09-09T06:24:48;15.80;99.90
22442;DHT22;11388;54.456;9.752;2022-09-09T06:27:14;15.80;99.90
22442;DHT22;11388;54.456;9.752;2022-09-09T06:29:40;15.80;99.90
22442;DHT22;11388;54.456;9.752;2022-09-09T06:32:07;15.70;99.90
22442;DHT22;11388;54.456;9.752;2022-09-09T06:34:34;15.70;99.90
22442;DHT22;11388;54.456;9.752;2022-09-09T06:37:01;15.80;99.90
22442;DHT22;11388;54.456;9.752;2022-09-09T06:39:26;15.80;99.90
22442;DHT22;11388;54.456;9.752;2022-09-09T06:41:52;15.90;99.90
22442;DHT22;11388;54.456;9.752;2022-09-09T06:44:19;15.80;99.90
22442;DHT22;11388;54.456;9.752;2022-09-09T06:46:44;15.80;99.90
22442;DHT22;11388;54.456;9.752;2022-09-09T06:49:13;15.90;99.90
22442;DHT22;11388;54.456;9.752;2022-09-09T06:51:39;16.00;99.90
22442;DHT22;11388;54.456;9.752;2022-09-09T06:54:12;15.90;99.90
22442;DHT22;11388;54.456;9.752;2022-09-09T06:56:40;16.00;99.90
22442;DHT22;11388;54.456;9.752;2022-09-09T06:59:08;16.00;99.90
22442;DHT22;11388;54.456;9.752;2022-09-09T07:01:41;16.20;99.90
22442;DHT22;11388;54.456;9.752;2022-09-09T07:04:09;16.30;99.90
22442;DHT22;11388;54.456;9.752;2022-09-09T07:06:44;16.30;99.90
22442;DHT22;11388;54.456;9.752;2022-09-09T07:09:14;16.30;99.90
22442;DHT22;11388;54.456;9.752;2022-09-09T07:11:46;16.30;99.90
22442;DHT22;11388;54.456;9.752;2022-09-09T07:14:12;16.20;99.90
22442;DHT22;11388;54.456;9.752;2022-09-09T07:16:43;16.20;99.90
22442;DHT22;11388;54.456;9.752;2022-09-09T07:19:10;16.20;99.90
22442;DHT22;11388;54.456;9.752;2022-09-09T07:21:36;16.30;99.90
22442;DHT22;11388;54.456;9.752;2022-09-09T07:24:02;16.20;99.90
22442;DHT22;11388;54.456;9.752;2022-09-09T07:26:30;16.30;99.90
22442;DHT22;11388;54.456;9.752;2022-09-09T07:28:59;16.30;99.90
22442;DHT22;11388;54.456;9.752;2022-09-09T07:31:30;16.40;99.90
22442;DHT22;11388;54.456;9.752;2022-09-09T07:34:00;16.50;99.90
22442;DHT22;11388;54.456;9.752;2022-09-09T07:36:31;16.50;99.90
22442;DHT22;11388;54.456;9.752;2022-09-09T07:39:06;16.50;99.90
22442;DHT22;11388;54.456;9.752;2022-09-09T07:41:37;16.70;99.90
22442;DHT22;11388;54.456;9.752;2022-09-09T07:44:05;16.70;99.90
22442;DHT22;11388;54.456;9.752;2022-09-09T07:46:39;16.70;99.90
22442;DHT22;11388;54.456;9.752;2022-09-09T07:49:16;16.80;99.90
22442;DHT22;11388;54.456;9.752;2022-09-09T07:51:46;16.80;99.90
22442;DHT22;11388;54.456;9.752;2022-09-09T07:54:23;16.80;99.90
22442;DHT22;11388;54.456;9.752;2022-09-09T07:57:00;16.70;99.90
22442;DHT22;11388;54.456;9.752;2022-09-09T07:59:27;16.70;99.90
22442;DHT22;11388;54.456;9.752;2022-09-09T08:01:55;16.70;99.90
22442;DHT22;11388;54.456;9.752;2022-09-09T08:04:25;16.80;99.90
22442;DHT22;11388;54.456;9.752;2022-09-09T08:06:56;16.60;99.90
22442;DHT22;11388;54.456;9.752;2022-09-09T08:09:23;16.60;99.90
22442;DHT22;11388;54.456;9.752;2022-09-09T08:11:55;16.80;99.90
22442;DHT22;11388;54.456;9.752;2022-09-09T08:14:22;16.80;99.90
22442;DHT22;11388;54.456;9.752;2022-09-09T08:16:49;16.90;99.90
22442;DHT22;11388;54.456;9.752;2022-09-09T08:19:15;17.00;99.90
22442;DHT22;11388;54.456;9.752;2022-09-09T08:21:43;17.10;99.90
22442;DHT22;11388;54.456;9.752;2022-09-09T08:24:10;17.20;99.90
22442;DHT22;11388;54.456;9.752;2022-09-09T08:26:40;17.40;99.90
22442;DHT22;11388;54.456;9.752;2022-09-09T08:29:08;17.40;99.90
22442;DHT22;11388;54.456;9.752;2022-09-09T08:31:41;17.30;99.90
22442;DHT22;11388;54.456;9.752;2022-09-09T08:34:08;17.20;99.90
22442;DHT22;11388;54.456;9.752;2022-09-09T08:36:42;17.20;99.90
22442;DHT22;11388;54.456;9.752;2022-09-09T08:39:09;17.30;99.90
22442;DHT22;11388;54.456;9.752;2022-09-09T08:52:42;17.60;99.90
22442;DHT22;11388;54.456;9.752;2022-09-09T08:57:54;17.80;99.90
22442;DHT22;11388;54.456;9.752;2022-09-09T09:00:21;17.80;99.90
22442;DHT22;11388;54.456;9.752;2022-09-09T09:06:11;17.80;99.90
22442;DHT22;11388;54.456;9.752;2022-09-09T09:08:55;17.90;99.90
22442;DHT22;11388;54.456;9.752;2022-09-09T09:14:18;17.90;99.90
22442;DHT22;11388;54.456;9.752;2022-09-09T09:16:58;18.10;99.90
22442;DHT22;11388;54.456;9.752;2022-09-09T09:19:26;18.30;99.90
22442;DHT22;11388;54.456;9.752;2022-09-09T09:25:21;18.40;99.90
22442;DHT22;11388;54.456;9.752;2022-09-09T09:28:25;18.60;99.90
22442;DHT22;11388;54.456;9.752;2022-09-09T09:31:05;18.70;99.90
22442;DHT22;11388;54.456;9.752;2022-09-09T09:36:12;18.50;99.90
22442;DHT22;11388;54.456;9.752;2022-09-09T09:38:58;18.60;99.90
22442;DHT22;11388;54.456;9.752;2022-09-09T09:41:43;18.60;99.90
22442;DHT22;11388;54.456;9.752;2022-09-09T09:44:30;18.60;99.90
22442;DHT22;11388;54.456;9.752;2022-09-09T09:47:17;18.80;99.90
22442;DHT22;11388;54.456;9.752;2022-09-09T09:50:00;19.00;99.90
22442;DHT22;11388;54.456;9.752;2022-09-09T09:52:29;19.30;99.90
22442;DHT22;11388;54.456;9.752;2022-09-09T09:54:57;19.30;99.90
22442;DHT22;11388;54.456;9.752;2022-09-09T09:57:29;19.30;99.90
22442;DHT22;11388;54.456;9.752;2022-09-09T10:00:12;19.50;99.90
22442;DHT22;11388;54.456;9.752;2022-09-09T10:02:41;19.60;99.90
22442;DHT22;11388;54.456;9.752;2022-09-09T10:05:17;19.80;99.90
22442;DHT22;11388;54.456;9.752;2022-09-09T10:07:44;20.00;99.90
22442;DHT22;11388;54.456;9.752;2022-09-09T10:16:11;19.40;99.90
22442;DHT22;11388;54.456;9.752;2022-09-09T10:21:42;19.20;99.90
22442;DHT22;11388;54.456;9.752;2022-09-09T10:24:27;19.30;99.90
22442;DHT22;11388;54.456;9.752;2022-09-09T10:27:05;19.40;99.90
22442;DHT22;11388;54.456;9.752;2022-09-09T10:29:47;19.40;99.90
22442;DHT22;11388;54.456;9.752;2022-09-09T10:35:30;19.30;99.90
22442;DHT22;11388;54.456;9.752;2022-09-09T10:39:01;19.30;99.90
22442;DHT22;11388;54.456;9.752;2022-09-09T10:44:17;19.40;99.90
22442;DHT22;11388;54.456;9.752;2022-09-09T10:47:19;19.60;99.90
22442;DHT22;11388;54.456;9.752;2022-09-09T10:55:19;20.20;99.90
22442;DHT22;11388;54.456;9.752;2022-09-09T10:57:53;20.30;99.90
22442;DHT22;11388;54.456;9.752;2022-09-09T11:00:23;20.20;99.90
22442;DHT22;11388;54.456;9.752;2022-09-09T11:03:03;20.00;99.90
22442;DHT22;11388;54.456;9.752;2022-09-09T11:05:49;20.00;99.90
22442;DHT22;11388;54.456;9.752;2022-09-09T11:08:41;20.20;99.90
22442;DHT22;11388;54.456;9.752;2022-09-09T11:11:15;20.20;99.90
22442;DHT22;11388;54.456;9.752;2022-09-09T11:13:51;20.20;99.90
22442;DHT22;11388;54.456;9.752;2022-09-09T11:25:31;20.40;99.90
22442;DHT22;11388;54.456;9.752;2022-09-09T11:41:48;21.10;99.90
22442;DHT22;11388;54.456;9.752;2022-09-09T11:44:23;21.00;99.90
22442;DHT22;11388;54.456;9.752;2022-09-09T11:46:52;20.80;99.90
22442;DHT22;11388;54.456;9.752;2022-09-09T11:49:29;20.90;99.90
22442;DHT22;11388;54.456;9.752;2022-09-09T11:52:38;20.90;99.90
22442;DHT22;11388;54.456;9.752;2022-09-09T11:57:46;20.90;99.90
22442;DHT22;11388;54.456;9.752;2022-09-09T12:00:48;20.90;99.90
22442;DHT22;11388;54.456;9.752;2022-09-09T12:03:48;20.90;99.90
22442;DHT22;11388;54.456;9.752;2022-09-09T12:06:28;21.40;99.90
22442;DHT22;11388;54.456;9.752;2022-09-09T12:11:43;21.70;99.90
22442;DHT22;11388;54.456;9.752;2022-09-09T12:14:35;21.70;99.90
22442;DHT22;11388;54.456;9.752;2022-09-09T12:17:20;21.80;99.90
22442;DHT22;11388;54.456;9.752;2022-09-09T12:19:48;22.40;99.90
22442;DHT22;11388;54.456;9.752;2022-09-09T12:22:51;23.00;99.90
22442;DHT22;11388;54.456;9.752;2022-09-09T12:31:39;24.40;99.90
22442;DHT22;11388;54.456;9.752;2022-09-09T12:36:40;27.10;99.90
22442;DHT22;11388;54.456;9.752;2022-09-09T12:39:25;25.40;99.90
22442;DHT22;11388;54.456;9.752;2022-09-09T12:41:53;24.50;99.90
22442;DHT22;11388;54.456;9.752;2022-09-09T12:44:24;24.70;99.90
22442;DHT22;11388;54.456;9.752;2022-09-09T12:46:51;24.80;99.90
22442;DHT22;11388;54.456;9.752;2022-09-09T12:52:29;28.70;99.90
22442;DHT22;11388;54.456;9.752;2022-09-09T12:54:58;31.30;99.90
22442;DHT22;11388;54.456;9.752;2022-09-09T12:57:31;30.40;99.70
22442;DHT22;11388;54.456;9.752;2022-09-09T13:00:17;30.10;99.60
22442;DHT22;11388;54.456;9.752;2022-09-09T13:02:55;30.40;99.90
22442;DHT22;11388;54.456;9.752;2022-09-09T13:05:26;32.40;98.50
22442;DHT22;11388;54.456;9.752;2022-09-09T13:08:04;32.80;97.00
22442;DHT22;11388;54.456;9.752;2022-09-09T13:10:35;33.20;97.10
22442;DHT22;11388;54.456;9.752;2022-09-09T13:13:05;33.30;96.80
22442;DHT22;11388;54.456;9.752;2022-09-09T13:15:37;34.00;94.00
22442;DHT22;11388;54.456;9.752;2022-09-09T13:18:06;34.80;91.80
22442;DHT22;11388;54.456;9.752;2022-09-09T13:20:36;33.90;92.70
22442;DHT22;11388;54.456;9.752;2022-09-09T13:23:05;33.00;93.40
22442;DHT22;11388;54.456;9.752;2022-09-09T13:25:31;31.80;96.10
22442;DHT22;11388;54.456;9.752;2022-09-09T13:28:01;30.20;97.30
22442;DHT22;11388;54.456;9.752;2022-09-09T13:30:35;29.10;99.80
22442;DHT22;11388;54.456;9.752;2022-09-09T13:33:03;27.80;99.90
22442;DHT22;11388;54.456;9.752;2022-09-09T13:35:30;27.20;99.90
22442;DHT22;11388;54.456;9.752;2022-09-09T13:37:57;26.40;99.90
22442;DHT22;11388;54.456;9.752;2022-09-09T13:40:26;25.80;99.90
22442;DHT22;11388;54.456;9.752;2022-09-09T13:42:55;25.80;99.90
22442;DHT22;11388;54.456;9.752;2022-09-09T13:45:23;25.20;99.90
22442;DHT22;11388;54.456;9.752;2022-09-09T13:47:53;25.10;99.90
22442;DHT22;11388;54.456;9.752;2022-09-09T13:50:26;24.80;99.90
22442;DHT22;11388;54.456;9.752;2022-09-09T13:52:54;24.60;99.90
22442;DHT22;11388;54.456;9.752;2022-09-09T13:55:25;24.40;99.90
22442;DHT22;11388;54.456;9.752;2022-09-09T13:58:02;24.30;99.90
22442;DHT22;11388;54.456;9.752;2022-09-09T14:00:30;24.10;99.90
22442;DHT22;11388;54.456;9.752;2022-09-09T14:02:56;24.20;99.90
22442;DHT22;11388;54.456;9.752;2022-09-09T14:05:25;24.30;99.90
22442;DHT22;11388;54.456;9.752;2022-09-09T14:07:59;23.90;99.90
22442;DHT22;11388;54.456;9.752;2022-09-09T14:10:26;24.00;99.90
22442;DHT22;11388;54.456;9.752;2022-09-09T14:12:57;23.90;99.90
22442;DHT22;11388;54.456;9.752;2022-09-09T14:15:27;23.80;99.90
22442;DHT22;11388;54.456;9.752;2022-09-09T14:17:54;23.70;99.90
22442;DHT22;11388;54.456;9.752;2022-09-09T14:20:21;23.70;99.90
22442;DHT22;11388;54.456;9.752;2022-09-09T14:22:49;24.10;99.90
22442;DHT22;11388;54.456;9.752;2022-09-09T14:25:22;24.50;99.90
22442;DHT22;11388;54.456;9.752;2022-09-09T14:27:56;24.20;99.90
22442;DHT22;11388;54.456;9.752;2022-09-09T14:30:22;24.20;99.90
22442;DHT22;11388;54.456;9.752;2022-09-09T14:32:48;24.30;99.90
22442;DHT22;11388;54.456;9.752;2022-09-09T14:35:14;24.20;99.90
22442;DHT22;11388;54.456;9.752;2022-09-09T14:37:39;24.20;99.90
22442;DHT22;11388;54.456;9.752;2022-09-09T14:40:06;24.20;99.90
22442;DHT22;11388;54.456;9.752;2022-09-09T14:42:32;23.90;99.90
22442;DHT22;11388;54.456;9.752;2022-09-09T14:44:58;23.40;99.90
22442;DHT22;11388;54.456;9.752;2022-09-09T14:47:24;23.20;99.90
22442;DHT22;11388;54.456;9.752;2022-09-09T14:49:49;23.00;99.90
22442;DHT22;11388;54.456;9.752;2022-09-09T14:52:15;22.90;99.90
22442;DHT22;11388;54.456;9.752;2022-09-09T14:54:41;23.10;99.90
22442;DHT22;11388;54.456;9.752;2022-09-09T14:57:07;23.40;99.90
22442;DHT22;11388;54.456;9.752;2022-09-09T14:59:33;23.30;99.90
22442;DHT22;11388;54.456;9.752;2022-09-09T15:02:01;23.30;99.90
22442;DHT22;11388;54.456;9.752;2022-09-09T15:04:29;23.30;99.90
22442;DHT22;11388;54.456;9.752;2022-09-09T15:06:55;23.30;99.90
22442;DHT22;11388;54.456;9.752;2022-09-09T15:09:20;23.50;99.90
22442;DHT22;11388;54.456;9.752;2022-09-09T15:11:46;23.60;99.90
22442;DHT22;11388;54.456;9.752;2022-09-09T15:14:12;23.60;99.90
22442;DHT22;11388;54.456;9.752;2022-09-09T15:16:38;23.30;99.90
22442;DHT22;11388;54.456;9.752;2022-09-09T15:19:04;23.30;99.90
22442;DHT22;11388;54.456;9.752;2022-09-09T15:21:33;23.30;99.90
22442;DHT22;11388;54.456;9.752;2022-09-09T15:23:59;23.00;99.90
22442;DHT22;11388;54.456;9.752;2022-09-09T15:26:26;22.90;99.90
22442;DHT22;11388;54.456;9.752;2022-09-09T15:28:52;22.70;99.90
22442;DHT22;11388;54.456;9.752;2022-09-09T15:31:23;22.40;99.90
22442;DHT22;11388;54.456;9.752;2022-09-09T15:33:54;22.10;99.90
22442;DHT22;11388;54.456;9.752;2022-09-09T15:36:27;21.80;99.90
22442;DHT22;11388;54.456;9.752;2022-09-09T15:38:54;21.70;99.90
22442;DHT22;11388;54.456;9.752;2022-09-09T15:41:21;21.60;99.90
22442;DHT22;11388;54.456;9.752;2022-09-09T15:43:49;21.30;99.90
22442;DHT22;11388;54.456;9.752;2022-09-09T15:48:56;20.60;99.90
22442;DHT22;11388;54.456;9.752;2022-09-09T15:51:23;20.30;99.90
22442;DHT22;11388;54.456;9.752;2022-09-09T15:53:53;20.20;99.90
22442;DHT22;11388;54.456;9.752;2022-09-09T15:56:19;19.90;99.90
22442;DHT22;11388;54.456;9.752;2022-09-09T15:58:47;19.70;99.90
22442;DHT22;11388;54.456;9.752;2022-09-09T16:01:13;19.50;99.90
22442;DHT22;11388;54.456;9.752;2022-09-09T16:03:41;19.20;99.90
22442;DHT22;11388;54.456;9.752;2022-09-09T16:06:14;18.90;99.90
22442;DHT22;11388;54.456;9.752;2022-09-09T16:08:43;18.80;99.90
22442;DHT22;11388;54.456;9.752;2022-09-09T16:11:11;18.70;99.90
22442;DHT22;11388;54.456;9.752;2022-09-09T16:13:40;18.80;99.90
22442;DHT22;11388;54.456;9.752;2022-09-09T16:16:07;18.90;99.90
22442;DHT22;11388;54.456;9.752;2022-09-09T16:18:38;19.20;99.90
22442;DHT22;11388;54.456;9.752;2022-09-09T16:21:05;19.20;99.90
22442;DHT22;11388;54.456;9.752;2022-09-09T16:23:32;19.10;99.90
22442;DHT22;11388;54.456;9.752;2022-09-09T16:25:57;19.00;99.90
22442;DHT22;11388;54.456;9.752;2022-09-09T16:28:23;19.10;99.90
22442;DHT22;11388;54.456;9.752;2022-09-09T16:30:49;18.90;99.90
22442;DHT22;11388;54.456;9.752;2022-09-09T16:33:18;19.00;99.90
22442;DHT22;11388;54.456;9.752;2022-09-09T16:35:44;19.10;99.90
22442;DHT22;11388;54.456;9.752;2022-09-09T16:38:13;19.10;99.90
22442;DHT22;11388;54.456;9.752;2022-09-09T16:40:39;19.00;99.90
22442;DHT22;11388;54.456;9.752;2022-09-09T16:46:55;19.10;99.90
22442;DHT22;11388;54.456;9.752;2022-09-09T16:49:21;19.20;99.90
22442;DHT22;11388;54.456;9.752;2022-09-09T16:51:48;19.10;99.90
22442;DHT22;11388;54.456;9.752;2022-09-09T16:54:16;19.10;99.90
22442;DHT22;11388;54.456;9.752;2022-09-09T16:56:44;19.00;99.90
22442;DHT22;11388;54.456;9.752;2022-09-09T16:59:18;19.00;99.90
22442;DHT22;11388;54.456;9.752;2022-09-09T17:01:45;18.80;99.90
22442;DHT22;11388;54.456;9.752;2022-09-09T17:04:30;18.70;99.90
22442;DHT22;11388;54.456;9.752;2022-09-09T17:07:04;18.60;99.90
22442;DHT22;11388;54.456;9.752;2022-09-09T17:10:28;18.50;99.90
22442;DHT22;11388;54.456;9.752;2022-09-09T17:13:07;18.50;99.90
22442;DHT22;11388;54.456;9.752;2022-09-09T17:15:57;18.50;99.90
22442;DHT22;11388;54.456;9.752;2022-09-09T17:18:33;18.50;99.90
22442;DHT22;11388;54.456;9.752;2022-09-09T17:21:06;18.50;99.90
22442;DHT22;11388;54.456;9.752;2022-09-09T17:23:34;18.50;99.90
22442;DHT22;11388;54.456;9.752;2022-09-09T17:26:06;18.50;99.90
22442;DHT22;11388;54.456;9.752;2022-09-09T17:28:37;18.50;99.90
22442;DHT22;11388;54.456;9.752;2022-09-09T17:31:06;18.40;99.90
22442;DHT22;11388;54.456;9.752;2022-09-09T17:33:38;18.50;99.90
22442;DHT22;11388;54.456;9.752;2022-09-09T17:36:29;18.50;99.90
22442;DHT22;11388;54.456;9.752;2022-09-09T17:39:03;18.50;99.90
22442;DHT22;11388;54.456;9.752;2022-09-09T17:41:45;18.30;99.90
22442;DHT22;11388;54.456;9.752;2022-09-09T17:44:11;18.10;99.90
22442;DHT22;11388;54.456;9.752;2022-09-09T17:46:39;18.00;99.90
22442;DHT22;11388;54.456;9.752;2022-09-09T17:49:14;18.00;99.90
22442;DHT22;11388;54.456;9.752;2022-09-09T17:51:46;18.10;99.90
22442;DHT22;11388;54.456;9.752;2022-09-09T17:54:20;18.10;99.90
22442;DHT22;11388;54.456;9.752;2022-09-09T17:56:47;18.10;99.90
22442;DHT22;11388;54.456;9.752;2022-09-09T17:59:14;18.10;99.90
22442;DHT22;11388;54.456;9.752;2022-09-09T18:01:44;18.10;99.90
22442;DHT22;11388;54.456;9.752;2022-09-09T18:04:15;18.00;99.90
22442;DHT22;11388;54.456;9.752;2022-09-09T18:06:45;17.90;99.90
22442;DHT22;11388;54.456;9.752;2022-09-09T18:09:17;17.80;99.90
22442;DHT22;11388;54.456;9.752;2022-09-09T18:11:56;17.90;99.90
22442;DHT22;11388;54.456;9.752;2022-09-09T18:14:27;17.80;99.90